Time;durP1;ratioP1;P1;durP2;ratioP2;P2;SDS_P1;SDS_P2;PMS_P1;PMS_P2;Temp;Humidity;BMP_temperature;BMP_pressure;BME280_temperature;BME280_humidity;BME280_pressure;Samples;Min_cycle;Max_cycle;Signal;HPM_P1;HPM_P2
2021/09/29 00:00:42;;;;;;;4.57;1.58;;;19.50;62.70;;;;;;5134202;27;20102;-62
2021/09/29 00:03:08;;;;;;;4.50;1.50;;;19.40;62.80;;;;;;5134378;27;20035;-61
2021/09/29 00:05:33;;;;;;;4.20;1.58;;;19.40;62.70;;;;;;5134221;27;20458;-62
2021/09/29 00:07:59;;;;;;;4.68;1.60;;;19.50;62.70;;;;;;5134148;27;20028;-63
2021/09/29 00:10:24;;;;;;;4.15;1.35;;;19.50;62.70;;;;;;5134108;27;20412;-62
2021/09/29 00:12:50;;;;;;;5.47;1.58;;;19.50;62.70;;;;;;5134339;27;20530;-63
2021/09/29 00:15:16;;;;;;;4.82;1.50;;;19.50;62.70;;;;;;5134213;27;20485;-62
2021/09/29 00:17:42;;;;;;;5.75;1.80;;;19.50;62.70;;;;;;5133986;27;20023;-62
2021/09/29 00:20:10;;;;;;;5.57;1.70;;;19.40;62.70;;;;;;5134020;27;20023;-62
2021/09/29 00:22:35;;;;;;;5.75;1.83;;;19.40;62.70;;;;;;5134167;27;20023;-62
2021/09/29 00:25:01;;;;;;;5.43;1.80;;;19.40;62.70;;;;;;5133939;27;20386;-62
2021/09/29 00:27:26;;;;;;;4.43;1.85;;;19.40;62.70;;;;;;5133904;28;20023;-62
2021/09/29 00:29:54;;;;;;;5.15;1.77;;;19.40;62.70;;;;;;5133781;28;20031;-62
2021/09/29 00:32:20;;;;;;;3.92;1.70;;;19.40;62.70;;;;;;5133998;28;20390;-62
2021/09/29 00:34:46;;;;;;;5.63;1.90;;;19.40;62.70;;;;;;5133955;28;20026;-62
2021/09/29 00:37:11;;;;;;;5.93;1.63;;;19.40;62.60;;;;;;5133895;28;20098;-62
2021/09/29 00:39:38;;;;;;;6.10;1.88;;;19.40;62.60;;;;;;5133666;28;20043;-62
2021/09/29 00:42:04;;;;;;;4.43;1.60;;;19.30;62.70;;;;;;5133952;28;20036;-62
2021/09/29 00:44:30;;;;;;;4.30;1.77;;;19.40;62.60;;;;;;5133694;28;20482;-62
2021/09/29 00:46:56;;;;;;;4.93;1.95;;;19.40;62.60;;;;;;5133696;28;20028;-62
2021/09/29 00:49:22;;;;;;;4.80;1.75;;;19.40;62.60;;;;;;5115358;28;20019;-63
2021/09/29 00:51:48;;;;;;;5.65;2.28;;;19.40;62.60;;;;;;5133713;28;20118;-62
2021/09/29 00:54:13;;;;;;;4.57;1.75;;;19.40;62.60;;;;;;5133618;28;20106;-63
2021/09/29 00:56:39;;;;;;;5.13;1.80;;;19.30;62.60;;;;;;5133690;28;20027;-63
2021/09/29 00:59:05;;;;;;;5.47;1.90;;;19.40;62.60;;;;;;5134998;27;20114;-62
2021/09/29 01:01:32;;;;;;;5.18;1.60;;;19.30;62.60;;;;;;5137881;27;20052;-62
2021/09/29 01:03:59;;;;;;;6.88;1.80;;;19.30;62.60;;;;;;5137683;27;20435;-63
2021/09/29 01:06:50;;;;;;;4.35;1.65;;;19.30;62.60;;;;;;5137552;27;20027;-63
2021/09/29 01:09:34;;;;;;;4.55;1.88;;;19.30;62.60;;;;;;5137483;27;20035;-63
2021/09/29 01:12:11;;;;;;;4.95;1.98;;;19.30;62.60;;;;;;5137510;27;20374;-62
2021/09/29 01:14:39;;;;;;;4.97;1.70;;;19.30;62.70;;;;;;5137670;27;20034;-62
2021/09/29 01:17:06;;;;;;;4.03;1.80;;;19.30;62.60;;;;;;5137536;27;20108;-62
2021/09/29 01:19:46;;;;;;;4.10;1.75;;;19.30;62.60;;;;;;5137524;27;20031;-63
2021/09/29 01:23:06;;;;;;;4.63;1.80;;;19.30;62.70;;;;;;5137382;27;20023;-62
2021/09/29 01:25:53;;;;;;;3.65;1.60;;;19.30;62.70;;;;;;5033905;28;20025;-62
2021/09/29 01:28:23;;;;;;;4.30;1.70;;;19.30;62.60;;;;;;5137451;27;20023;-64
2021/09/29 01:30:49;;;;;;;3.67;1.58;;;19.20;62.60;;;;;;5137229;27;20114;-62
2021/09/29 01:33:16;;;;;;;4.22;1.65;;;19.30;62.60;;;;;;5137011;27;20099;-62
2021/09/29 01:35:43;;;;;;;4.75;1.88;;;19.20;62.70;;;;;;5137064;27;20031;-62
2021/09/29 01:38:08;;;;;;;5.75;2.35;;;19.20;62.60;;;;;;5136958;27;20051;-62
2021/09/29 01:40:35;;;;;;;4.45;1.80;;;19.20;62.70;;;;;;5136931;27;20099;-63
2021/09/29 01:43:00;;;;;;;6.53;2.10;;;19.20;62.60;;;;;;5136751;27;20517;-62
2021/09/29 01:45:26;;;;;;;5.78;2.08;;;19.20;62.60;;;;;;5118480;27;20042;-62
2021/09/29 01:47:51;;;;;;;4.72;1.90;;;19.20;62.60;;;;;;5136751;27;20149;-62
2021/09/29 01:50:25;;;;;;;4.90;1.70;;;19.20;62.60;;;;;;5136694;27;20019;-63
2021/09/29 01:52:52;;;;;;;7.72;2.00;;;19.20;62.60;;;;;;5136759;27;20394;-62
2021/09/29 01:55:18;;;;;;;4.38;1.80;;;19.20;62.60;;;;;;5136608;27;20031;-62
2021/09/29 01:57:49;;;;;;;5.40;1.90;;;19.20;62.70;;;;;;5118213;27;20031;-62
2021/09/29 02:00:16;;;;;;;5.53;1.80;;;19.20;62.60;;;;;;5136764;27;20102;-62
2021/09/29 02:02:43;;;;;;;6.60;2.20;;;19.20;62.60;;;;;;5136460;27;20067;-63
2021/09/29 02:05:10;;;;;;;7.25;2.00;;;19.20;62.60;;;;;;5136522;27;20032;-62
2021/09/29 02:07:36;;;;;;;4.43;1.80;;;19.20;62.50;;;;;;5117941;27;20030;-62
2021/09/29 02:10:04;;;;;;;5.85;1.80;;;19.20;62.60;;;;;;5136541;27;20019;-63
2021/09/29 02:12:30;;;;;;;4.15;1.65;;;19.20;62.60;;;;;;5136602;27;20038;-63
2021/09/29 02:14:56;;;;;;;3.83;1.75;;;19.20;62.60;;;;;;5136525;27;20053;-62
2021/09/29 02:17:21;;;;;;;6.25;2.10;;;19.20;62.50;;;;;;5136535;27;20019;-62
2021/09/29 02:19:47;;;;;;;5.43;1.98;;;19.20;62.50;;;;;;5136478;27;20023;-62
2021/09/29 02:22:17;;;;;;;4.55;1.80;;;19.20;62.60;;;;;;5117895;27;20030;-62
2021/09/29 02:24:43;;;;;;;4.97;1.80;;;19.20;62.50;;;;;;5117868;27;20110;-62
2021/09/29 02:27:09;;;;;;;4.75;1.98;;;19.20;62.50;;;;;;5136026;27;20027;-62
2021/09/29 02:29:35;;;;;;;4.95;1.92;;;19.20;62.60;;;;;;5136039;27;20442;-62
2021/09/29 02:32:00;;;;;;;4.25;1.75;;;19.20;62.50;;;;;;5136068;27;20023;-62
2021/09/29 02:34:26;;;;;;;4.70;1.67;;;19.20;62.60;;;;;;5117839;27;20026;-62
2021/09/29 02:36:52;;;;;;;4.28;1.40;;;19.20;62.50;;;;;;5136078;27;20053;-62
2021/09/29 02:39:17;;;;;;;5.28;2.13;;;19.20;62.50;;;;;;5135732;27;20134;-63
2021/09/29 02:41:43;;;;;;;6.38;2.00;;;19.10;62.60;;;;;;5135671;27;20027;-62
2021/09/29 02:44:11;;;;;;;5.20;1.88;;;19.10;62.50;;;;;;5136040;27;20035;-62
2021/09/29 02:46:38;;;;;;;5.07;1.90;;;19.20;62.50;;;;;;5135669;27;20020;-63
2021/09/29 02:49:04;;;;;;;5.30;2.08;;;19.20;62.50;;;;;;5135603;27;20027;-62
2021/09/29 02:51:30;;;;;;;4.97;2.17;;;19.20;62.50;;;;;;5135534;27;20027;-62
2021/09/29 02:53:57;;;;;;;4.47;1.77;;;19.20;62.60;;;;;;5135710;27;20080;-63
2021/09/29 02:56:23;;;;;;;4.25;1.60;;;19.10;62.50;;;;;;5135476;27;20092;-63
2021/09/29 02:58:49;;;;;;;4.95;1.80;;;19.10;62.50;;;;;;5135433;27;20019;-62
2021/09/29 03:01:14;;;;;;;5.25;1.90;;;19.10;62.50;;;;;;5117420;27;20027;-63
2021/09/29 03:03:40;;;;;;;4.22;1.60;;;19.20;62.50;;;;;;5116813;27;20569;-62
2021/09/29 03:06:06;;;;;;;5.50;1.75;;;19.10;62.50;;;;;;5135216;27;20027;-62
2021/09/29 03:08:31;;;;;;;5.55;1.70;;;19.10;62.50;;;;;;5135251;27;20035;-62
2021/09/29 03:10:57;;;;;;;3.80;1.73;;;19.10;62.50;;;;;;5135157;27;20034;-62
2021/09/29 03:13:23;;;;;;;5.90;1.80;;;19.10;62.50;;;;;;5135323;27;20034;-62
2021/09/29 03:15:48;;;;;;;5.15;2.03;;;19.10;62.40;;;;;;5135060;27;20534;-62
2021/09/29 03:18:15;;;;;;;4.78;1.92;;;19.10;62.50;;;;;;5135007;27;20478;-64
2021/09/29 03:20:41;;;;;;;5.45;2.00;;;19.10;62.50;;;;;;5134939;27;20504;-63
2021/09/29 03:23:07;;;;;;;4.53;2.15;;;19.10;62.50;;;;;;5134328;27;20500;-62
2021/09/29 03:25:33;;;;;;;4.85;1.80;;;19.10;62.40;;;;;;5135012;27;20051;-62
2021/09/29 03:27:59;;;;;;;5.30;2.03;;;19.10;62.40;;;;;;5135174;27;20047;-63
2021/09/29 03:30:25;;;;;;;4.93;1.70;;;19.10;62.40;;;;;;5134774;27;20100;-62
2021/09/29 03:32:50;;;;;;;5.07;2.00;;;19.10;62.40;;;;;;5134754;27;20068;-62
2021/09/29 03:35:16;;;;;;;4.85;1.92;;;19.10;62.40;;;;;;5134697;27;20450;-62
2021/09/29 03:37:43;;;;;;;5.68;1.75;;;19.10;62.40;;;;;;5134615;27;20047;-61
2021/09/29 03:40:10;;;;;;;4.22;1.80;;;19.10;62.50;;;;;;5134673;27;20536;-62
2021/09/29 03:42:36;;;;;;;7.50;2.15;;;19.10;62.40;;;;;;5134397;27;20470;-62
2021/09/29 03:45:04;;;;;;;3.80;1.85;;;19.10;62.50;;;;;;5134495;27;20035;-62
2021/09/29 03:47:29;;;;;;;4.95;1.90;;;19.10;62.50;;;;;;5134475;27;20054;-63
2021/09/29 03:49:55;;;;;;;3.53;1.63;;;19.10;62.40;;;;;;5134631;27;20446;-62
2021/09/29 03:52:21;;;;;;;5.57;2.08;;;19.10;62.40;;;;;;5134460;27;20102;-62
2021/09/29 03:54:46;;;;;;;5.32;1.83;;;19.10;62.40;;;;;;5134627;27;20019;-62
2021/09/29 03:57:12;;;;;;;5.55;1.77;;;19.10;62.40;;;;;;5134385;27;20027;-63
2021/09/29 03:59:37;;;;;;;4.30;1.60;;;19.00;62.40;;;;;;5116327;27;20011;-62
2021/09/29 04:02:03;;;;;;;3.55;1.48;;;19.10;62.40;;;;;;5134448;27;20027;-62
2021/09/29 04:04:28;;;;;;;9.23;1.80;;;19.10;62.50;;;;;;5134223;27;20482;-62
2021/09/29 04:06:54;;;;;;;4.60;1.95;;;19.00;62.40;;;;;;5134175;27;20076;-62
2021/09/29 04:09:19;;;;;;;7.53;2.25;;;19.10;62.40;;;;;;5134131;27;20027;-62
2021/09/29 04:11:45;;;;;;;4.13;1.65;;;19.10;62.40;;;;;;5134311;27;20016;-62
2021/09/29 04:14:10;;;;;;;5.03;1.70;;;19.10;62.40;;;;;;5134186;27;20416;-63
2021/09/29 04:16:36;;;;;;;5.13;1.90;;;19.00;62.40;;;;;;5133962;27;20493;-62
2021/09/29 04:19:02;;;;;;;4.47;1.80;;;19.00;62.30;;;;;;5133914;27;20378;-62
2021/09/29 04:21:28;;;;;;;3.22;1.52;;;19.00;62.40;;;;;;5133885;27;20011;-62
2021/09/29 04:23:53;;;;;;;5.22;2.13;;;19.10;62.40;;;;;;5134090;27;20042;-62
2021/09/29 04:26:19;;;;;;;5.32;1.67;;;19.10;62.40;;;;;;5133882;27;20085;-62
2021/09/29 04:28:44;;;;;;;5.65;2.15;;;19.10;62.40;;;;;;5134225;28;20050;-62
2021/09/29 04:31:10;;;;;;;5.82;1.95;;;19.00;62.40;;;;;;5134109;28;20025;-62
2021/09/29 04:33:36;;;;;;;4.60;1.75;;;19.00;62.40;;;;;;5134568;27;20023;-62
2021/09/29 04:36:03;;;;;;;5.03;1.75;;;19.10;62.40;;;;;;5138415;27;20015;-61
2021/09/29 04:38:28;;;;;;;4.20;1.67;;;19.00;62.40;;;;;;5138033;27;20046;-62
2021/09/29 04:40:54;;;;;;;4.30;1.80;;;19.10;62.40;;;;;;5137958;27;20019;-62
2021/09/29 04:43:20;;;;;;;6.03;1.80;;;19.00;62.40;;;;;;5137865;27;20042;-62
2021/09/29 04:45:47;;;;;;;5.07;1.88;;;19.10;62.30;;;;;;5137992;27;20026;-62
2021/09/29 04:48:13;;;;;;;7.07;1.88;;;19.00;62.40;;;;;;5138153;27;20050;-62
2021/09/29 04:50:39;;;;;;;5.82;1.88;;;19.00;62.40;;;;;;5138080;27;20046;-62
2021/09/29 04:53:04;;;;;;;4.82;1.75;;;19.00;62.30;;;;;;5137927;27;20502;-62
2021/09/29 04:55:30;;;;;;;3.33;1.50;;;19.00;62.40;;;;;;5119468;27;20027;-62
2021/09/29 04:57:56;;;;;;;5.20;1.83;;;19.00;62.40;;;;;;5119741;27;20023;-62
2021/09/29 05:00:22;;;;;;;4.53;1.60;;;19.00;62.30;;;;;;5137728;27;20542;-62
2021/09/29 05:02:49;;;;;;;5.25;2.00;;;19.00;62.40;;;;;;5137535;27;20110;-62
2021/09/29 05:05:16;;;;;;;6.30;1.70;;;19.00;62.40;;;;;;5137850;27;20019;-62
2021/09/29 05:07:47;;;;;;;8.70;1.90;;;19.00;62.40;;;;;;5137573;27;20019;-62
2021/09/29 05:10:21;;;;;;;4.25;1.60;;;19.00;62.40;;;;;;5137516;27;20466;-62
2021/09/29 05:12:48;;;;;;;4.18;1.65;;;19.00;62.40;;;;;;5137429;27;20027;-62
2021/09/29 05:15:14;;;;;;;4.28;1.77;;;19.00;62.40;;;;;;5137310;27;20027;-62
2021/09/29 05:17:39;;;;;;;6.03;1.73;;;19.00;62.40;;;;;;5137345;27;20083;-62
2021/09/29 05:20:05;;;;;;;4.32;1.60;;;19.00;62.40;;;;;;5137530;27;20102;-63
2021/09/29 05:22:31;;;;;;;4.60;1.65;;;19.00;62.40;;;;;;5137148;27;20062;-62
2021/09/29 05:24:57;;;;;;;4.10;1.70;;;19.00;62.40;;;;;;5137255;27;20066;-62
2021/09/29 05:27:22;;;;;;;4.35;1.70;;;19.00;62.40;;;;;;5137045;27;20023;-62
2021/09/29 05:29:50;;;;;;;4.30;1.70;;;19.00;62.40;;;;;;5137126;27;20057;-62
2021/09/29 05:32:16;;;;;;;6.18;1.90;;;19.00;62.40;;;;;;5137357;27;20026;-63
2021/09/29 05:34:41;;;;;;;3.05;1.58;;;19.00;62.40;;;;;;5137032;27;20027;-62
2021/09/29 05:37:07;;;;;;;3.55;1.30;;;19.00;62.40;;;;;;5137022;27;20058;-63
2021/09/29 05:39:32;;;;;;;4.85;1.63;;;19.00;62.40;;;;;;5136853;27;20103;-63
2021/09/29 05:41:59;;;;;;;4.50;1.75;;;19.00;62.30;;;;;;5136866;27;20080;-62
2021/09/29 05:44:25;;;;;;;4.57;1.80;;;19.00;62.40;;;;;;5136427;27;20027;-62
2021/09/29 05:46:50;;;;;;;4.10;1.63;;;19.00;62.40;;;;;;5118413;27;20088;-62
2021/09/29 05:49:17;;;;;;;3.38;1.40;;;19.00;62.40;;;;;;5137042;27;20127;-62
2021/09/29 05:51:45;;;;;;;4.72;1.60;;;19.00;62.40;;;;;;5136723;27;20053;-62
2021/09/29 05:54:11;;;;;;;4.40;1.55;;;19.00;62.40;;;;;;5136891;27;20019;-63
2021/09/29 05:56:37;;;;;;;3.85;1.40;;;19.00;62.40;;;;;;5136686;27;20050;-62
2021/09/29 05:59:02;;;;;;;3.80;1.40;;;19.00;62.30;;;;;;5136466;27;20015;-62
2021/09/29 06:01:28;;;;;;;4.38;1.67;;;19.00;62.30;;;;;;5118156;27;20027;-62
2021/09/29 06:03:53;;;;;;;5.65;1.85;;;19.00;62.30;;;;;;5136356;27;20071;-62
2021/09/29 06:06:19;;;;;;;5.93;1.77;;;19.00;62.30;;;;;;5136488;27;20031;-62
2021/09/29 06:08:45;;;;;;;4.47;1.60;;;19.00;62.30;;;;;;5136535;27;20019;-62
2021/09/29 06:11:10;;;;;;;5.22;1.70;;;19.00;62.30;;;;;;5136373;27;20023;-62
2021/09/29 06:13:36;;;;;;;3.35;1.40;;;19.00;62.30;;;;;;5136214;27;20019;-63
2021/09/29 06:16:06;;;;;;;8.02;1.90;;;19.00;62.20;;;;;;5136210;27;20492;-62
2021/09/29 06:18:34;;;;;;;3.40;1.48;;;19.00;62.20;;;;;;5136523;27;20074;-62
2021/09/29 06:21:01;;;;;;;3.35;1.58;;;19.10;62.20;;;;;;5117757;27;20029;-62
2021/09/29 06:23:27;;;;;;;4.13;1.63;;;19.00;62.20;;;;;;5113699;27;20039;-62
2021/09/29 06:25:52;;;;;;;5.60;1.52;;;19.00;62.20;;;;;;5121574;27;20115;-61
2021/09/29 06:28:18;;;;;;;2.78;1.30;;;19.00;62.20;;;;;;5120078;27;20027;-62
2021/09/29 06:30:44;;;;;;;4.72;1.40;;;19.00;62.20;;;;;;5117034;27;20019;-62
2021/09/29 06:33:10;;;;;;;3.00;1.33;;;19.00;62.20;;;;;;5115611;27;20057;-61
2021/09/29 06:35:35;;;;;;;3.53;1.30;;;19.10;62.20;;;;;;5123518;27;20031;-61
2021/09/29 06:38:02;;;;;;;3.15;1.35;;;19.10;62.30;;;;;;5116261;27;20044;-61
2021/09/29 06:40:28;;;;;;;4.95;1.58;;;19.10;62.30;;;;;;5116384;27;20096;-59
2021/09/29 06:42:54;;;;;;;3.05;1.50;;;19.00;62.40;;;;;;5116198;27;20503;-59
2021/09/29 06:45:20;;;;;;;6.57;1.60;;;19.00;62.40;;;;;;5112635;27;20072;-59
2021/09/29 06:47:49;;;;;;;4.90;1.50;;;19.10;62.50;;;;;;5116994;27;20055;-60
2021/09/29 06:50:17;;;;;;;5.05;1.80;;;19.10;62.50;;;;;;5130221;27;20031;-59
2021/09/29 06:52:43;;;;;;;2.55;1.10;;;19.10;62.50;;;;;;5115932;27;20023;-60
2021/09/29 06:55:09;;;;;;;4.32;1.45;;;19.10;62.50;;;;;;5114894;27;20027;-61
2021/09/29 06:57:35;;;;;;;3.80;1.60;;;19.10;62.60;;;;;;5118437;27;20498;-61
2021/09/29 07:00:02;;;;;;;3.47;1.27;;;19.10;62.50;;;;;;5122006;27;20031;-59
2021/09/29 07:02:28;;;;;;;4.55;1.50;;;19.20;62.60;;;;;;5114720;27;20057;-59
2021/09/29 07:04:53;;;;;;;5.25;1.38;;;19.20;62.60;;;;;;5109654;27;20107;-60
2021/09/29 07:07:19;;;;;;;4.28;1.52;;;19.20;62.60;;;;;;5118328;27;20062;-59
2021/09/29 07:09:44;;;;;;;4.63;1.58;;;19.20;62.60;;;;;;5114513;27;20690;-60
2021/09/29 07:12:10;;;;;;;4.47;1.65;;;19.20;62.70;;;;;;5120169;27;20584;-60
2021/09/29 07:14:36;;;;;;;4.05;1.67;;;19.20;62.80;;;;;;5116289;27;20031;-60
2021/09/29 07:17:01;;;;;;;3.92;1.58;;;19.20;62.70;;;;;;5114881;27;20092;-59
2021/09/29 07:19:28;;;;;;;4.45;1.52;;;19.20;62.80;;;;;;5121426;27;20077;-59
2021/09/29 07:21:54;;;;;;;5.47;1.50;;;19.20;62.80;;;;;;5116498;27;20020;-60
2021/09/29 07:24:20;;;;;;;4.75;1.80;;;19.20;62.90;;;;;;5121236;27;20104;-59
2021/09/29 07:26:46;;;;;;;5.07;1.75;;;19.20;63.00;;;;;;5112440;27;20031;-59
2021/09/29 07:29:11;;;;;;;3.47;1.17;;;19.20;63.00;;;;;;5123021;27;20030;-59
2021/09/29 07:31:37;;;;;;;3.78;1.48;;;19.30;63.00;;;;;;5115239;27;20023;-59
2021/09/29 07:34:04;;;;;;;6.47;1.60;;;19.20;63.00;;;;;;5125706;27;20099;-59
2021/09/29 07:36:30;;;;;;;3.42;1.30;;;19.30;63.10;;;;;;5108403;27;20032;-60
2021/09/29 07:38:56;;;;;;;2.88;1.27;;;19.30;63.00;;;;;;5128546;27;20348;-59
2021/09/29 07:41:21;;;;;;;6.00;1.52;;;19.40;63.00;;;;;;5120270;27;20470;-60
2021/09/29 07:43:47;;;;;;;3.33;1.27;;;19.30;63.00;;;;;;5123767;27;20106;-60
2021/09/29 07:46:12;;;;;;;4.22;1.45;;;19.30;63.00;;;;;;5109219;27;20417;-59
2021/09/29 07:48:39;;;;;;;2.95;1.13;;;19.40;63.00;;;;;;5115963;27;20052;-60
2021/09/29 07:51:04;;;;;;;3.80;1.40;;;19.40;63.00;;;;;;5126796;27;20023;-60
2021/09/29 07:53:30;;;;;;;4.93;1.50;;;19.40;63.10;;;;;;5117942;27;20493;-60
2021/09/29 07:55:56;;;;;;;2.60;1.17;;;19.40;63.10;;;;;;5089430;27;20032;-60
2021/09/29 07:58:22;;;;;;;3.78;1.33;;;19.40;63.30;;;;;;5120932;27;20470;-59
2021/09/29 08:00:48;;;;;;;3.63;1.33;;;19.40;63.20;;;;;;5118526;27;20035;-59
2021/09/29 08:03:14;;;;;;;3.42;1.45;;;19.40;63.10;;;;;;5123518;27;20458;-59
2021/09/29 08:05:40;;;;;;;3.67;1.40;;;19.40;63.20;;;;;;5105930;27;20554;-59
2021/09/29 08:08:06;;;;;;;4.72;1.50;;;19.50;63.10;;;;;;5115700;27;20058;-59
2021/09/29 08:10:32;;;;;;;3.55;1.60;;;19.50;63.10;;;;;;5113732;27;20074;-60
2021/09/29 08:12:58;;;;;;;3.45;1.38;;;19.50;63.10;;;;;;5114688;27;20381;-59
2021/09/29 08:15:23;;;;;;;3.63;1.38;;;19.50;63.00;;;;;;5104358;27;20498;-60
2021/09/29 08:17:50;;;;;;;3.90;1.48;;;19.50;63.10;;;;;;5119959;27;20079;-59
2021/09/29 08:20:19;;;;;;;3.20;1.20;;;19.50;63.10;;;;;;5116523;27;20034;-60
2021/09/29 08:22:49;;;;;;;2.85;1.23;;;19.50;63.10;;;;;;5122456;27;20035;-60
2021/09/29 08:25:38;;;;;;;2.47;1.08;;;19.50;63.00;;;;;;5109475;27;20103;-61
2021/09/29 08:28:30;;;;;;;5.30;1.45;;;19.50;63.10;;;;;;5121158;27;20027;-60
2021/09/29 08:38:35;;;;;;;2.28;1.02;;;19.60;63.10;;;;;;5125587;28;20104;-60
2021/09/29 08:43:41;;;;;;;3.35;1.20;;;19.60;63.10;;;;;;5113060;28;20305;-59
2021/09/29 08:49:16;;;;;;;4.75;1.50;;;19.60;63.10;;;;;;5096514;28;20563;-60
2021/09/29 09:16:55;;;;;;;4.28;1.42;;;19.60;63.40;;;;;;5114983;28;19914;-62
2021/09/29 09:19:27;;;;;;;3.33;1.20;;;19.60;63.40;;;;;;5112998;27;20024;-60
2021/09/29 09:21:56;;;;;;;5.50;1.38;;;19.60;63.50;;;;;;5129580;27;20098;-60
2021/09/29 09:24:24;;;;;;;4.75;1.45;;;19.60;63.50;;;;;;5116846;27;20034;-59
2021/09/29 09:27:18;;;;;;;3.22;1.40;;;19.70;63.40;;;;;;5117666;27;20027;-59
2021/09/29 09:29:53;;;;;;;5.85;1.40;;;19.70;63.50;;;;;;5118720;27;20160;-60
2021/09/29 09:32:24;;;;;;;3.17;1.30;;;19.60;63.60;;;;;;5128846;27;20062;-59
2021/09/29 09:35:11;;;;;;;3.88;1.05;;;19.70;63.60;;;;;;5112415;27;20043;-59
2021/09/29 09:37:38;;;;;;;5.65;1.70;;;19.60;63.50;;;;;;5107152;27;20035;-59
2021/09/29 09:40:09;;;;;;;4.93;1.25;;;19.60;63.50;;;;;;5130282;27;20034;-59
2021/09/29 09:42:48;;;;;;;2.95;1.20;;;19.60;63.70;;;;;;5123951;27;20028;-60
2021/09/29 09:45:15;;;;;;;4.50;1.65;;;19.60;63.80;;;;;;5113986;27;20027;-60
2021/09/29 09:47:43;;;;;;;4.35;1.35;;;19.60;63.70;;;;;;5126258;27;20062;-60
2021/09/29 09:50:10;;;;;;;5.47;1.58;;;19.60;63.60;;;;;;5118072;27;20653;-59
2021/09/29 09:52:49;;;;;;;3.22;1.30;;;19.70;63.50;;;;;;5124224;27;20039;-60
2021/09/29 09:55:18;;;;;;;2.83;1.23;;;19.70;63.50;;;;;;5115178;27;20035;-59
2021/09/29 09:57:50;;;;;;;4.55;1.40;;;19.70;63.50;;;;;;5122909;27;20500;-59
2021/09/29 10:00:18;;;;;;;3.08;1.15;;;19.70;63.50;;;;;;5122853;27;20031;-59
2021/09/29 10:02:48;;;;;;;3.13;1.13;;;19.70;63.40;;;;;;5118460;27;20028;-59
2021/09/29 10:05:16;;;;;;;4.53;1.00;;;19.70;63.50;;;;;;5122119;27;20508;-59
2021/09/29 10:07:41;;;;;;;3.30;1.33;;;19.70;63.70;;;;;;5117342;27;20031;-60
2021/09/29 10:13:17;;;;;;;4.18;1.42;;;19.70;63.60;;;;;;5127101;27;20440;-60
2021/09/29 10:24:01;;;;;;;6.57;1.42;;;19.80;63.50;;;;;;5125400;27;20093;-59
2021/09/29 10:26:27;;;;;;;3.40;1.35;;;19.80;63.50;;;;;;5106468;27;20019;-59
2021/09/29 10:29:09;;;;;;;3.00;1.05;;;19.80;63.60;;;;;;5117220;27;20028;-60
2021/09/29 10:31:59;;;;;;;3.78;1.30;;;19.80;63.60;;;;;;5119242;27;20035;-60
2021/09/29 10:34:35;;;;;;;5.57;1.27;;;19.80;63.50;;;;;;5118120;27;20116;-61
2021/09/29 10:47:55;;;;;;;3.92;1.42;;;19.80;63.60;;;;;;5101979;28;20028;-60
2021/09/29 11:28:47;;;;;;;3.88;1.45;;;19.80;64.00;;;;;;5108089;28;20083;-59
2021/09/29 11:31:23;;;;;;;8.43;1.10;;;19.80;63.90;;;;;;5092582;28;20023;-59
2021/09/29 11:39:15;;;;;;;2.30;0.80;;;19.80;64.10;;;;;;5123757;27;20059;-60
2021/09/29 12:09:33;;;;;;;4.15;1.05;;;19.70;64.10;;;;;;5113577;28;20030;-60
2021/09/29 12:14:49;;;;;;;3.47;1.20;;;19.80;64.10;;;;;;5129714;27;19904;-61
2021/09/29 12:17:25;;;;;;;3.00;1.00;;;19.70;64.20;;;;;;5129127;27;20023;-60
2021/09/29 12:19:55;;;;;;;3.95;1.30;;;19.70;64.20;;;;;;5129327;27;20114;-61
2021/09/29 12:22:23;;;;;;;2.55;1.05;;;19.70;64.10;;;;;;5125823;27;20031;-60
2021/09/29 12:24:56;;;;;;;3.25;1.30;;;19.70;64.10;;;;;;5126923;27;20378;-60
2021/09/29 12:27:22;;;;;;;2.20;1.00;;;19.80;64.00;;;;;;5130246;27;20023;-60
2021/09/29 12:29:50;;;;;;;2.92;1.00;;;19.80;64.00;;;;;;5127983;27;20111;-61
2021/09/29 12:35:23;;;;;;;2.65;0.90;;;19.80;63.70;;;;;;5111366;28;20115;-60
2021/09/29 12:38:03;;;;;;;3.67;1.10;;;19.80;63.60;;;;;;5119228;28;20483;-60
2021/09/29 12:40:32;;;;;;;3.30;1.13;;;19.80;63.70;;;;;;5128954;28;20039;-59
2021/09/29 12:43:03;;;;;;;3.20;1.10;;;19.80;63.60;;;;;;5107977;28;20050;-59
2021/09/29 12:45:34;;;;;;;2.63;0.98;;;19.80;63.60;;;;;;5122360;28;20019;-59
2021/09/29 12:48:00;;;;;;;4.22;1.20;;;19.80;63.80;;;;;;5116779;28;20077;-60
2021/09/29 12:50:39;;;;;;;3.28;0.85;;;19.90;63.40;;;;;;5114401;28;20031;-59
2021/09/29 12:53:18;;;;;;;4.45;1.38;;;19.90;63.60;;;;;;5120119;28;20435;-59
2021/09/29 12:55:58;;;;;;;2.70;0.90;;;19.90;63.60;;;;;;5121706;27;20008;-60
2021/09/29 12:58:24;;;;;;;2.72;1.00;;;19.90;63.60;;;;;;5131900;27;20509;-60
2021/09/29 13:00:50;;;;;;;3.40;0.93;;;19.80;63.80;;;;;;5112833;27;20110;-61
2021/09/29 13:03:16;;;;;;;2.38;0.90;;;19.80;63.60;;;;;;5125177;27;20471;-60
2021/09/29 13:05:42;;;;;;;4.10;1.20;;;19.90;63.40;;;;;;5098026;28;20479;-60
2021/09/29 13:08:07;;;;;;;3.72;1.13;;;19.90;63.50;;;;;;5118358;27;20078;-60
2021/09/29 13:10:34;;;;;;;3.60;1.10;;;19.90;63.00;;;;;;5116785;27;20016;-60
2021/09/29 13:12:59;;;;;;;3.53;0.80;;;19.90;63.40;;;;;;5120771;27;20019;-60
2021/09/29 13:15:25;;;;;;;2.75;0.85;;;19.90;63.40;;;;;;5135925;27;20027;-60
2021/09/29 13:17:53;;;;;;;1.83;0.80;;;19.90;63.40;;;;;;5117838;27;20110;-60
2021/09/29 13:20:21;;;;;;;2.03;0.85;;;19.90;63.30;;;;;;5116812;27;20114;-59
2021/09/29 13:22:58;;;;;;;2.10;0.90;;;19.80;63.40;;;;;;5123575;27;20159;-59
2021/09/29 13:36:34;;;;;;;2.13;0.82;;;19.50;63.70;;;;;;5136205;27;20034;-60
2021/09/29 13:39:07;;;;;;;4.00;0.90;;;19.50;64.50;;;;;;5116286;28;20039;-60
2021/09/29 13:41:33;;;;;;;3.00;1.10;;;19.50;64.50;;;;;;5116388;28;20567;-59
2021/09/29 13:43:59;;;;;;;1.85;1.05;;;19.50;64.60;;;;;;5116254;28;20052;-60
2021/09/29 13:46:24;;;;;;;3.30;1.00;;;19.50;64.60;;;;;;5120013;27;20019;-59
2021/09/29 13:48:52;;;;;;;2.92;1.00;;;19.50;64.70;;;;;;5121945;27;20035;-60
2021/09/29 13:51:17;;;;;;;2.28;1.10;;;19.40;64.80;;;;;;5128990;27;20023;-59
2021/09/29 13:53:44;;;;;;;3.72;0.85;;;19.40;64.80;;;;;;5133912;27;20537;-60
2021/09/29 13:56:11;;;;;;;2.63;1.10;;;19.40;64.70;;;;;;5115457;28;20031;-59
2021/09/29 14:14:15;;;;;;;5.28;1.23;;;19.50;64.90;;;;;;5127982;27;20470;-60
2021/09/29 14:29:32;;;;;;;2.47;0.95;;;19.60;64.10;;;;;;5128602;27;20123;-59
2021/09/29 14:34:00;;;;;;;2.20;0.80;;;19.60;63.70;;;;;;5122508;27;20031;-61
2021/09/29 14:36:26;;;;;;;2.33;1.02;;;19.60;64.00;;;;;;5113151;27;20107;-61
2021/09/29 14:38:51;;;;;;;3.70;1.27;;;19.60;63.90;;;;;;5114039;28;20052;-59
2021/09/29 14:41:17;;;;;;;2.70;1.20;;;19.50;62.80;;;;;;5113153;28;20062;-61
2021/09/29 14:43:43;;;;;;;2.90;1.15;;;19.50;63.30;;;;;;5112955;28;20039;-60
2021/09/29 14:46:08;;;;;;;2.78;0.90;;;19.50;63.90;;;;;;5113370;28;20043;-61
2021/09/29 14:48:34;;;;;;;2.20;0.82;;;19.60;63.80;;;;;;5113939;28;20106;-60
2021/09/29 14:51:06;;;;;;;8.93;1.23;;;19.60;63.80;;;;;;5114857;28;20517;-60
2021/09/29 14:53:32;;;;;;;3.63;1.00;;;19.60;63.70;;;;;;5115049;28;20038;-59
2021/09/29 14:55:58;;;;;;;3.08;0.90;;;19.60;63.60;;;;;;5114820;28;20531;-59
2021/09/29 14:58:25;;;;;;;3.40;1.20;;;19.60;63.60;;;;;;5096512;28;20027;-59
2021/09/29 15:00:51;;;;;;;3.35;1.00;;;19.60;63.60;;;;;;5114859;28;20024;-60
2021/09/29 15:03:17;;;;;;;2.72;0.95;;;19.60;63.60;;;;;;5114685;28;20031;-60
2021/09/29 15:05:43;;;;;;;2.17;1.00;;;19.60;63.60;;;;;;5114708;28;20080;-60
2021/09/29 15:08:08;;;;;;;2.13;1.02;;;19.60;63.60;;;;;;5115089;28;20034;-60
2021/09/29 15:10:34;;;;;;;2.08;0.90;;;19.50;63.60;;;;;;5114818;28;20023;-60
2021/09/29 15:13:03;;;;;;;3.15;0.95;;;19.50;63.60;;;;;;5096123;28;20024;-60
2021/09/29 15:15:32;;;;;;;4.38;1.33;;;19.50;63.70;;;;;;5114560;28;20367;-60
2021/09/29 15:18:08;;;;;;;2.08;0.77;;;19.50;63.70;;;;;;5114037;28;20023;-60
2021/09/29 15:21:02;;;;;;;2.65;1.00;;;19.50;63.70;;;;;;5114473;28;20024;-59
2021/09/29 15:28:54;;;;;;;6.55;1.25;;;19.50;63.70;;;;;;5114361;28;20087;-59
2021/09/29 15:32:09;;;;;;;3.53;1.10;;;19.50;63.70;;;;;;5114174;28;20092;-60
2021/09/29 15:47:57;;;;;;;2.75;0.95;;;19.40;63.60;;;;;;5114038;28;20057;-60
2021/09/29 15:55:49;;;;;;;2.13;0.73;;;19.50;63.60;;;;;;5114075;28;20051;-61
2021/09/29 15:58:24;;;;;;;2.30;0.70;;;19.40;63.50;;;;;;5113840;28;20027;-60
2021/09/29 16:06:13;;;;;;;1.60;0.73;;;19.40;63.50;;;;;;5114060;28;20080;-60
2021/09/29 16:09:17;;;;;;;2.15;0.93;;;19.40;63.60;;;;;;5113612;28;20481;-60
2021/09/29 16:30:19;;;;;;;4.40;1.05;;;19.30;63.70;;;;;;5113484;28;20084;-60
2021/09/29 16:35:24;;;;;;;3.28;1.00;;;19.20;63.70;;;;;;5113410;28;20462;-60
2021/09/29 16:37:50;;;;;;;1.90;0.73;;;19.20;63.80;;;;;;5113024;28;20071;-60
2021/09/29 16:40:17;;;;;;;4.50;0.90;;;19.20;63.70;;;;;;5113381;28;20482;-60
2021/09/29 16:42:51;;;;;;;2.53;0.90;;;19.20;63.60;;;;;;5112946;28;20027;-60